Weather at Meir Medical Center Helipad

Public forecast

Using degrees Celsius for public forecast. Weather courtesy of forecast.io.

Closest aviation weather report (METAR) to Meir Medical Center Helipad

Closest report is Ben Gurion International Airport, 10.4 nm (19.2 km) S.

2022/12/04 04:50 (retrieved 26 minutes ago)

LLBG 040450Z VRB02KT CAVOK 13/09 Q1018 NOSIG

Closest aviation forecast (TAF) to Meir Medical Center Helipad

Forecast is more than 12 hours old.

Closest forecast is Beirut Rafic Hariri International Airport, 102.7 nm (190.3 km) NNE.

2022/12/03 06:00 (retrieved 23 hours ago)

TAF OLBA 030400Z 0306/0412 33010KT 8000 NSC BECMG 0320/0322 12004KT 9999 FEW030 BECMG 0406/0409 28010KT 8000 SCT026